sim
Sign-in with your pilot id or email,
or register
Callsign
Passwort

Schedule Details

Flight Number: DLH2321
Departure: Luxembourg Findel Airport (ELLX) at 16:20
Arrival: Munich Airport (EDDM) at 17:25
Route: Lufthansa Passenger Schedule. Enter filed route here before submitting Pirep.

Weather Information
Getting current METAR information for ELLX 280920Z 22007KT 170V280 9999 BKN013 10/06 Q1010 NOSIG
Getting current METAR information for EDDM 280920Z 21003KT 150V270 9999 -RA FEW007 BKN045 08/06 Q1011 NOSIG

Schedule Frequency

Route Map